Etusivu
METAR-TAF:

METAR-TAF

Lentoasemat :

Elkhart Municipal Airport

Elkhart, Indiana, Yhdysvallat

Leveyspiiri: 41-43N, Pituuspiiri: 086-00W, korkeus merenpinnasta: 237 m

Tämänhetkinen sää

Tämä raportti tehtiin 5 tuntia ja 2 minuuttia sitten, kello 01.52 UTC
Tuuli 3 kn lännestä/lounaasta
Lämpötila 3°C
Kosteus 100%
Ilmanpaine 1008 hPa
Näkyvyys: 4.0 km
Pilvistä 600 ft:n korkeudessa
utua

METAR: KEKM 190152Z 24003KT 2 1/2SM BR OVC006 03/03 A2976 RMK AO2 LAST

Aika: 01:54 (06:54 UTC)


TAF: puuttuu

Säähavainnot ja -ennusteet yli 4000 lentoasemalta (METAR- ja TAF-raportit).

Käytössä olevat sääasemat on merkitty karttaan keltaisilla ja punaisilla pisteillä.

Aseta hiiri pisteen päälle nähdäksesi sääaseman nimen.

Klikkaa sitten nähdäksesi säähavainnot ja -ennusteet.

Kartan vaihtaminen: klikkaa mustalla rastilla varustettuja vihreitä pisteitä, niin voit zoomata sisään; viivalla varustettua vihreää pistettä, niin voit zoomata ulos tai vihreitä nuolia, niin pääset viereisille kartoille.


METAR-TAF: